sensor_id;sensor_type;location;lat;lon;timestamp;pressure;altitude;pressure_sealevel;temperature;humidity
37892;BME280;45797;47.466;9.486;2023-04-27T00:00:01;95881.03;;;12.84;57.00
37892;BME280;45797;47.466;9.486;2023-04-27T00:05:10;95874.81;;;12.85;57.26
37892;BME280;45797;47.466;9.486;2023-04-27T00:10:10;95872.78;;;12.77;57.60
37892;BME280;45797;47.466;9.486;2023-04-27T00:15:11;95861.09;;;12.70;58.25
37892;BME280;45797;47.466;9.486;2023-04-27T00:20:11;95856.31;;;12.64;58.24
37892;BME280;45797;47.466;9.486;2023-04-27T00:25:11;95852.63;;;12.55;58.58
37892;BME280;45797;47.466;9.486;2023-04-27T00:30:11;95849.88;;;12.57;58.90
37892;BME280;45797;47.466;9.486;2023-04-27T00:35:12;95845.44;;;12.57;58.64
37892;BME280;45797;47.466;9.486;2023-04-27T00:40:12;95848.91;;;12.58;58.88
37892;BME280;45797;47.466;9.486;2023-04-27T00:45:12;95840.44;;;12.54;59.08
37892;BME280;45797;47.466;9.486;2023-04-27T00:50:13;95842.13;;;12.55;59.01
37892;BME280;45797;47.466;9.486;2023-04-27T00:55:13;95838.06;;;12.51;59.17
37892;BME280;45797;47.466;9.486;2023-04-27T01:00:14;95841.75;;;12.49;59.54
37892;BME280;45797;47.466;9.486;2023-04-27T01:05:14;95853.34;;;12.46;59.75
37892;BME280;45797;47.466;9.486;2023-04-27T01:10:14;95852.53;;;12.46;59.56
37892;BME280;45797;47.466;9.486;2023-04-27T01:15:15;95848.22;;;12.45;59.83
37892;BME280;45797;47.466;9.486;2023-04-27T01:20:15;95840.59;;;12.42;59.77
37892;BME280;45797;47.466;9.486;2023-04-27T01:25:17;95836.19;;;12.42;59.74
37892;BME280;45797;47.466;9.486;2023-04-27T01:30:18;95856.94;;;12.45;59.29
37892;BME280;45797;47.466;9.486;2023-04-27T01:35:19;95845.22;;;12.49;59.52
37892;BME280;45797;47.466;9.486;2023-04-27T01:40:19;95849.41;;;12.52;59.33
37892;BME280;45797;47.466;9.486;2023-04-27T01:45:20;95861.47;;;12.54;59.35
37892;BME280;45797;47.466;9.486;2023-04-27T01:50:21;95857.19;;;12.53;59.37
37892;BME280;45797;47.466;9.486;2023-04-27T01:55:21;95861.09;;;12.48;59.77
37892;BME280;45797;47.466;9.486;2023-04-27T02:00:21;95864.81;;;12.45;59.92
37892;BME280;45797;47.466;9.486;2023-04-27T02:05:22;95868.28;;;12.46;60.17
37892;BME280;45797;47.466;9.486;2023-04-27T02:10:22;95868.53;;;12.43;60.39
37892;BME280;45797;47.466;9.486;2023-04-27T02:15:23;95872.22;;;12.40;60.39
37892;BME280;45797;47.466;9.486;2023-04-27T02:20:23;95866.13;;;12.40;60.65
37892;BME280;45797;47.466;9.486;2023-04-27T02:25:23;95874.84;;;12.40;60.88
37892;BME280;45797;47.466;9.486;2023-04-27T02:30:23;95879.38;;;12.38;60.93
37892;BME280;45797;47.466;9.486;2023-04-27T02:35:23;95880.34;;;12.37;61.08
37892;BME280;45797;47.466;9.486;2023-04-27T02:40:24;95871.75;;;12.35;61.30
37892;BME280;45797;47.466;9.486;2023-04-27T02:45:24;95866.50;;;12.35;61.17
37892;BME280;45797;47.466;9.486;2023-04-27T02:50:24;95872.00;;;12.32;61.62
37892;BME280;45797;47.466;9.486;2023-04-27T02:55:25;95873.75;;;12.32;61.56
37892;BME280;45797;47.466;9.486;2023-04-27T03:00:26;95876.50;;;12.30;61.76
37892;BME280;45797;47.466;9.486;2023-04-27T03:05:26;95872.22;;;12.29;61.87
37892;BME280;45797;47.466;9.486;2023-04-27T03:10:28;95869.13;;;12.24;61.68
37892;BME280;45797;47.466;9.486;2023-04-27T03:15:28;95867.47;;;12.23;62.08
37892;BME280;45797;47.466;9.486;2023-04-27T03:20:28;95864.09;;;12.21;62.19
37892;BME280;45797;47.466;9.486;2023-04-27T03:25:28;95860.75;;;12.19;62.24
37892;BME280;45797;47.466;9.486;2023-04-27T03:30:28;95870.44;;;12.18;62.30
37892;BME280;45797;47.466;9.486;2023-04-27T03:35:28;95872.34;;;12.16;62.26
37892;BME280;45797;47.466;9.486;2023-04-27T03:40:28;95872.47;;;12.15;62.56
37892;BME280;45797;47.466;9.486;2023-04-27T03:45:28;95878.66;;;12.14;62.67
37892;BME280;45797;47.466;9.486;2023-04-27T03:50:29;95871.97;;;12.10;62.75
37892;BME280;45797;47.466;9.486;2023-04-27T03:55:29;95877.22;;;12.10;62.67
37892;BME280;45797;47.466;9.486;2023-04-27T04:00:30;95884.38;;;12.08;62.80
37892;BME280;45797;47.466;9.486;2023-04-27T04:05:31;95884.50;;;12.06;62.82
37892;BME280;45797;47.466;9.486;2023-04-27T04:10:31;95891.41;;;12.07;62.89
37892;BME280;45797;47.466;9.486;2023-04-27T04:15:31;95891.41;;;12.07;63.02
37892;BME280;45797;47.466;9.486;2023-04-27T04:20:33;95891.19;;;12.10;63.05
37892;BME280;45797;47.466;9.486;2023-04-27T04:25:33;95888.69;;;12.09;62.89
37892;BME280;45797;47.466;9.486;2023-04-27T04:30:34;95887.97;;;12.07;62.82
37892;BME280;45797;47.466;9.486;2023-04-27T04:35:38;95886.63;;;12.12;62.81
37892;BME280;45797;47.466;9.486;2023-04-27T04:40:39;95898.22;;;12.10;62.99
37892;BME280;45797;47.466;9.486;2023-04-27T04:45:40;95895.34;;;12.13;62.88
37892;BME280;45797;47.466;9.486;2023-04-27T04:50:40;95887.97;;;12.18;62.65
37892;BME280;45797;47.466;9.486;2023-04-27T04:55:41;95889.41;;;12.22;62.44
37892;BME280;45797;47.466;9.486;2023-04-27T05:00:42;95886.19;;;12.29;62.50
37892;BME280;45797;47.466;9.486;2023-04-27T05:05:42;95883.94;;;12.36;62.22
37892;BME280;45797;47.466;9.486;2023-04-27T05:10:50;95879.38;;;12.49;62.12
37892;BME280;45797;47.466;9.486;2023-04-27T05:15:51;95877.81;;;12.58;62.07
37892;BME280;45797;47.466;9.486;2023-04-27T05:20:51;95876.97;;;12.69;62.09
37892;BME280;45797;47.466;9.486;2023-04-27T05:25:51;95880.53;;;12.79;61.80
37892;BME280;45797;47.466;9.486;2023-04-27T05:30:51;95883.03;;;12.92;61.75
37892;BME280;45797;47.466;9.486;2023-04-27T05:35:52;95877.63;;;13.04;61.69
37892;BME280;45797;47.466;9.486;2023-04-27T05:40:58;95875.47;;;13.21;61.38
37892;BME280;45797;47.466;9.486;2023-04-27T05:45:58;95867.28;;;13.35;60.95
37892;BME280;45797;47.466;9.486;2023-04-27T05:51:00;95867.69;;;13.51;60.96
37892;BME280;45797;47.466;9.486;2023-04-27T05:56:00;95882.22;;;13.66;60.85
37892;BME280;45797;47.466;9.486;2023-04-27T06:01:03;95888.69;;;13.62;61.31
37892;BME280;45797;47.466;9.486;2023-04-27T06:06:03;95893.66;;;13.44;61.43
37892;BME280;45797;47.466;9.486;2023-04-27T06:11:04;95903.34;;;13.44;61.64
37892;BME280;45797;47.466;9.486;2023-04-27T06:16:05;95905.00;;;13.56;61.36
37892;BME280;45797;47.466;9.486;2023-04-27T06:21:05;95912.44;;;13.72;60.94
37892;BME280;45797;47.466;9.486;2023-04-27T06:26:05;95918.00;;;13.90;60.80
37892;BME280;45797;47.466;9.486;2023-04-27T06:31:06;95928.28;;;14.14;60.15
37892;BME280;45797;47.466;9.486;2023-04-27T06:36:06;95926.56;;;14.03;60.44
37892;BME280;45797;47.466;9.486;2023-04-27T06:41:06;95914.47;;;14.21;60.07
37892;BME280;45797;47.466;9.486;2023-04-27T06:46:07;95918.81;;;14.53;59.53
37892;BME280;45797;47.466;9.486;2023-04-27T06:51:07;95922.34;;;14.63;59.37
37892;BME280;45797;47.466;9.486;2023-04-27T06:56:10;95926.41;;;14.77;58.82
37892;BME280;45797;47.466;9.486;2023-04-27T07:01:10;95940.84;;;14.73;59.41
37892;BME280;45797;47.466;9.486;2023-04-27T07:06:11;95944.13;;;14.65;59.65
37892;BME280;45797;47.466;9.486;2023-04-27T07:11:11;95947.97;;;14.51;60.12
37892;BME280;45797;47.466;9.486;2023-04-27T07:16:11;95958.56;;;14.61;59.82
37892;BME280;45797;47.466;9.486;2023-04-27T07:21:12;95952.72;;;14.67;59.88
37892;BME280;45797;47.466;9.486;2023-04-27T07:26:12;95945.03;;;14.85;59.15
37892;BME280;45797;47.466;9.486;2023-04-27T07:31:12;95950.91;;;14.89;59.20
37892;BME280;45797;47.466;9.486;2023-04-27T07:36:13;95945.09;;;15.04;59.16
37892;BME280;45797;47.466;9.486;2023-04-27T07:41:13;95944.22;;;15.34;58.54
37892;BME280;45797;47.466;9.486;2023-04-27T07:46:14;95947.72;;;15.45;58.52
37892;BME280;45797;47.466;9.486;2023-04-27T07:51:15;95957.41;;;15.34;58.81
37892;BME280;45797;47.466;9.486;2023-04-27T07:56:16;95956.44;;;15.26;59.14
37892;BME280;45797;47.466;9.486;2023-04-27T08:01:16;95956.72;;;15.32;59.63
37892;BME280;45797;47.466;9.486;2023-04-27T08:06:17;95960.28;;;15.62;59.03
37892;BME280;45797;47.466;9.486;2023-04-27T08:11:18;95963.75;;;15.91;58.37
37892;BME280;45797;47.466;9.486;2023-04-27T08:16:19;95970.16;;;16.08;58.30
37892;BME280;45797;47.466;9.486;2023-04-27T08:21:19;95959.19;;;16.03;58.59
37892;BME280;45797;47.466;9.486;2023-04-27T08:26:19;95954.44;;;16.16;58.56
37892;BME280;45797;47.466;9.486;2023-04-27T08:31:19;95951.06;;;16.43;58.27
37892;BME280;45797;47.466;9.486;2023-04-27T08:36:21;95948.38;;;16.63;57.99
37892;BME280;45797;47.466;9.486;2023-04-27T08:41:25;95949.59;;;16.88;57.93
37892;BME280;45797;47.466;9.486;2023-04-27T08:46:25;95947.09;;;16.76;58.08
37892;BME280;45797;47.466;9.486;2023-04-27T08:51:31;95954.06;;;16.68;58.26
37892;BME280;45797;47.466;9.486;2023-04-27T08:56:31;95960.09;;;16.50;58.90
37892;BME280;45797;47.466;9.486;2023-04-27T09:01:32;95954.50;;;16.63;58.76
37892;BME280;45797;47.466;9.486;2023-04-27T09:06:33;95957.81;;;16.75;58.52
37892;BME280;45797;47.466;9.486;2023-04-27T09:11:36;95947.88;;;16.96;58.19
37892;BME280;45797;47.466;9.486;2023-04-27T09:16:36;95951.78;;;17.20;57.97
37892;BME280;45797;47.466;9.486;2023-04-27T09:21:37;95950.56;;;17.59;57.04
37892;BME280;45797;47.466;9.486;2023-04-27T09:26:37;95942.00;;;18.11;55.96
37892;BME280;45797;47.466;9.486;2023-04-27T09:31:37;95936.66;;;18.54;55.83
37892;BME280;45797;47.466;9.486;2023-04-27T09:36:38;95929.59;;;18.63;55.51
37892;BME280;45797;47.466;9.486;2023-04-27T09:41:39;95938.84;;;18.77;55.38
37892;BME280;45797;47.466;9.486;2023-04-27T09:46:40;95926.53;;;18.76;55.31
37892;BME280;45797;47.466;9.486;2023-04-27T09:51:42;95924.03;;;18.74;55.43
37892;BME280;45797;47.466;9.486;2023-04-27T10:01:54;95920.44;;;18.83;55.14
37892;BME280;45797;47.466;9.486;2023-04-27T10:06:59;95918.09;;;18.80;55.15
37892;BME280;45797;47.466;9.486;2023-04-27T10:12:22;95931.00;;;18.67;54.99
37892;BME280;45797;47.466;9.486;2023-04-27T10:17:30;95924.38;;;18.71;55.06
37892;BME280;45797;47.466;9.486;2023-04-27T10:22:47;95922.91;;;18.77;54.80
37892;BME280;45797;47.466;9.486;2023-04-27T10:32:55;95911.56;;;19.51;53.05
37892;BME280;45797;47.466;9.486;2023-04-27T10:38:05;95903.34;;;19.87;52.64
37892;BME280;45797;47.466;9.486;2023-04-27T10:43:13;95904.69;;;20.23;51.77
37892;BME280;45797;47.466;9.486;2023-04-27T10:48:15;95911.16;;;20.53;50.85
37892;BME280;45797;47.466;9.486;2023-04-27T10:53:32;95906.78;;;20.77;50.50
37892;BME280;45797;47.466;9.486;2023-04-27T10:58:34;95909.75;;;20.90;50.46
37892;BME280;45797;47.466;9.486;2023-04-27T11:03:36;95901.38;;;20.93;50.29
37892;BME280;45797;47.466;9.486;2023-04-27T11:08:43;95907.69;;;21.00;50.01
37892;BME280;45797;47.466;9.486;2023-04-27T11:13:47;95907.34;;;21.03;50.02
37892;BME280;45797;47.466;9.486;2023-04-27T11:18:48;95910.91;;;20.88;49.86
37892;BME280;45797;47.466;9.486;2023-04-27T11:23:48;95912.25;;;20.83;49.78
37892;BME280;45797;47.466;9.486;2023-04-27T11:29:06;95915.78;;;20.76;49.95
37892;BME280;45797;47.466;9.486;2023-04-27T11:34:23;95913.44;;;20.81;49.88
37892;BME280;45797;47.466;9.486;2023-04-27T11:39:54;95915.44;;;20.79;49.80
37892;BME280;45797;47.466;9.486;2023-04-27T11:45:00;95909.75;;;20.90;49.34
37892;BME280;45797;47.466;9.486;2023-04-27T11:50:04;95909.72;;;20.98;49.25
37892;BME280;45797;47.466;9.486;2023-04-27T11:55:05;95914.78;;;21.24;48.26
37892;BME280;45797;47.466;9.486;2023-04-27T12:00:15;95908.59;;;21.32;48.28
37892;BME280;45797;47.466;9.486;2023-04-27T12:05:16;95908.59;;;21.63;47.71
37892;BME280;45797;47.466;9.486;2023-04-27T12:10:18;95903.59;;;21.91;46.79
37892;BME280;45797;47.466;9.486;2023-04-27T12:15:18;95904.09;;;21.86;46.85
37892;BME280;45797;47.466;9.486;2023-04-27T12:20:21;95892.47;;;22.10;46.06
37892;BME280;45797;47.466;9.486;2023-04-27T12:25:21;95882.19;;;21.99;46.41
37892;BME280;45797;47.466;9.486;2023-04-27T12:30:22;95889.50;;;21.97;46.51
37892;BME280;45797;47.466;9.486;2023-04-27T12:35:22;95884.19;;;21.97;45.76
37892;BME280;45797;47.466;9.486;2023-04-27T12:40:23;95883.22;;;21.67;46.08
37892;BME280;45797;47.466;9.486;2023-04-27T12:45:23;95878.13;;;21.57;46.38
37892;BME280;45797;47.466;9.486;2023-04-27T12:50:23;95869.72;;;21.68;45.74
37892;BME280;45797;47.466;9.486;2023-04-27T12:55:23;95861.09;;;21.89;45.11
37892;BME280;45797;47.466;9.486;2023-04-27T13:00:24;95849.75;;;22.48;44.39
37892;BME280;45797;47.466;9.486;2023-04-27T13:05:24;95847.59;;;22.73;43.84
37892;BME280;45797;47.466;9.486;2023-04-27T13:10:25;95845.91;;;22.95;43.62
37892;BME280;45797;47.466;9.486;2023-04-27T13:15:26;95847.50;;;23.25;42.98
37892;BME280;45797;47.466;9.486;2023-04-27T13:20:27;95848.88;;;23.21;43.18
37892;BME280;45797;47.466;9.486;2023-04-27T13:25:27;95843.69;;;23.34;43.00
37892;BME280;45797;47.466;9.486;2023-04-27T13:30:29;95842.81;;;23.49;42.61
37892;BME280;45797;47.466;9.486;2023-04-27T13:35:29;95832.19;;;23.70;42.15
37892;BME280;45797;47.466;9.486;2023-04-27T13:40:29;95831.44;;;24.04;41.65
37892;BME280;45797;47.466;9.486;2023-04-27T13:45:29;95834.94;;;24.26;41.27
37892;BME280;45797;47.466;9.486;2023-04-27T13:50:31;95833.81;;;24.42;41.14
37892;BME280;45797;47.466;9.486;2023-04-27T13:55:32;95824.72;;;24.71;40.87
37892;BME280;45797;47.466;9.486;2023-04-27T14:00:32;95830.69;;;24.66;40.77
37892;BME280;45797;47.466;9.486;2023-04-27T14:05:33;95822.13;;;24.49;41.28
37892;BME280;45797;47.466;9.486;2023-04-27T14:10:35;95831.66;;;24.31;41.43
37892;BME280;45797;47.466;9.486;2023-04-27T14:15:35;95838.41;;;24.48;40.86
37892;BME280;45797;47.466;9.486;2023-04-27T14:20:37;95840.88;;;24.49;40.64
37892;BME280;45797;47.466;9.486;2023-04-27T14:25:37;95840.84;;;23.72;41.42
37892;BME280;45797;47.466;9.486;2023-04-27T14:30:38;95828.44;;;23.14;42.09
37892;BME280;45797;47.466;9.486;2023-04-27T14:35:38;95835.28;;;22.72;42.63
37892;BME280;45797;47.466;9.486;2023-04-27T14:40:38;95831.31;;;22.68;42.28
37892;BME280;45797;47.466;9.486;2023-04-27T14:45:38;95831.53;;;22.96;41.81
37892;BME280;45797;47.466;9.486;2023-04-27T14:50:38;95826.38;;;23.30;40.94
37892;BME280;45797;47.466;9.486;2023-04-27T14:55:39;95824.91;;;23.64;40.56
37892;BME280;45797;47.466;9.486;2023-04-27T15:00:40;95833.28;;;24.04;40.53
37892;BME280;45797;47.466;9.486;2023-04-27T15:05:40;95824.81;;;24.49;39.61
37892;BME280;45797;47.466;9.486;2023-04-27T15:10:40;95821.69;;;24.74;39.18
37892;BME280;45797;47.466;9.486;2023-04-27T15:15:40;95819.63;;;24.76;39.15
37892;BME280;45797;47.466;9.486;2023-04-27T15:20:58;95816.91;;;25.11;38.67
37892;BME280;45797;47.466;9.486;2023-04-27T15:25:58;95812.25;;;25.32;38.98
37892;BME280;45797;47.466;9.486;2023-04-27T15:30:58;95809.44;;;25.60;38.58
37892;BME280;45797;47.466;9.486;2023-04-27T15:35:59;95812.59;;;25.71;38.42
37892;BME280;45797;47.466;9.486;2023-04-27T15:40:59;95807.84;;;25.86;38.43
37892;BME280;45797;47.466;9.486;2023-04-27T15:46:02;95815.09;;;26.25;37.50
37892;BME280;45797;47.466;9.486;2023-04-27T15:51:04;95800.84;;;27.22;35.99
37892;BME280;45797;47.466;9.486;2023-04-27T15:56:05;95802.72;;;28.66;33.85
37892;BME280;45797;47.466;9.486;2023-04-27T16:01:05;95795.69;;;29.69;33.06
37892;BME280;45797;47.466;9.486;2023-04-27T16:06:06;95792.06;;;30.40;31.94
37892;BME280;45797;47.466;9.486;2023-04-27T16:11:06;95780.31;;;31.90;30.37
37892;BME280;45797;47.466;9.486;2023-04-27T16:16:07;95769.63;;;31.83;30.89
37892;BME280;45797;47.466;9.486;2023-04-27T16:21:07;95763.41;;;32.00;30.71
37892;BME280;45797;47.466;9.486;2023-04-27T16:26:07;95768.00;;;34.03;28.20
37892;BME280;45797;47.466;9.486;2023-04-27T16:31:08;95765.22;;;35.14;27.55
37892;BME280;45797;47.466;9.486;2023-04-27T16:36:09;95772.94;;;35.38;27.50
37892;BME280;45797;47.466;9.486;2023-04-27T16:41:10;95766.13;;;35.35;27.73
37892;BME280;45797;47.466;9.486;2023-04-27T16:46:10;95765.50;;;36.01;26.66
37892;BME280;45797;47.466;9.486;2023-04-27T16:51:10;95768.78;;;36.54;26.38
37892;BME280;45797;47.466;9.486;2023-04-27T16:56:10;95776.22;;;37.38;25.19
37892;BME280;45797;47.466;9.486;2023-04-27T17:01:12;95779.03;;;37.18;25.56
37892;BME280;45797;47.466;9.486;2023-04-27T17:06:12;95782.41;;;36.89;25.92
37892;BME280;45797;47.466;9.486;2023-04-27T17:11:12;95779.88;;;37.03;25.90
37892;BME280;45797;47.466;9.486;2023-04-27T17:16:13;95781.47;;;37.30;25.98
37892;BME280;45797;47.466;9.486;2023-04-27T17:21:15;95789.09;;;37.23;25.63
37892;BME280;45797;47.466;9.486;2023-04-27T17:26:16;95783.72;;;37.02;25.97
37892;BME280;45797;47.466;9.486;2023-04-27T17:31:18;95784.06;;;36.55;25.99
37892;BME280;45797;47.466;9.486;2023-04-27T17:36:19;95782.94;;;35.90;26.78
37892;BME280;45797;47.466;9.486;2023-04-27T17:41:19;95799.50;;;35.05;26.94
37892;BME280;45797;47.466;9.486;2023-04-27T17:46:19;95793.53;;;34.66;27.68
37892;BME280;45797;47.466;9.486;2023-04-27T17:51:19;95784.41;;;34.13;27.69
37892;BME280;45797;47.466;9.486;2023-04-27T17:56:20;95783.78;;;33.52;28.50
37892;BME280;45797;47.466;9.486;2023-04-27T18:01:20;95793.19;;;31.14;30.45
37892;BME280;45797;47.466;9.486;2023-04-27T18:06:20;95794.56;;;28.73;33.39
37892;BME280;45797;47.466;9.486;2023-04-27T18:11:21;95786.50;;;26.70;36.09
37892;BME280;45797;47.466;9.486;2023-04-27T18:16:21;95793.75;;;24.96;38.07
37892;BME280;45797;47.466;9.486;2023-04-27T18:21:21;95798.38;;;23.48;39.82
37892;BME280;45797;47.466;9.486;2023-04-27T18:26:21;95793.91;;;22.23;41.32
37892;BME280;45797;47.466;9.486;2023-04-27T18:31:22;95796.38;;;21.19;42.41
37892;BME280;45797;47.466;9.486;2023-04-27T18:36:30;95807.06;;;20.32;43.05
37892;BME280;45797;47.466;9.486;2023-04-27T18:47:59;95817.06;;;18.82;44.87
37892;BME280;45797;47.466;9.486;2023-04-27T18:53:06;95828.94;;;18.36;44.86
37892;BME280;45797;47.466;9.486;2023-04-27T18:58:11;95829.22;;;17.98;45.20
37892;BME280;45797;47.466;9.486;2023-04-27T19:03:11;95826.97;;;17.68;46.03
37892;BME280;45797;47.466;9.486;2023-04-27T19:08:12;95831.22;;;17.43;45.69
37892;BME280;45797;47.466;9.486;2023-04-27T19:13:13;95836.66;;;17.24;45.94
37892;BME280;45797;47.466;9.486;2023-04-27T19:18:25;95820.91;;;17.04;46.10
37892;BME280;45797;47.466;9.486;2023-04-27T19:23:27;95827.41;;;16.92;46.51
37892;BME280;45797;47.466;9.486;2023-04-27T19:34:12;95821.94;;;16.66;46.62
37892;BME280;45797;47.466;9.486;2023-04-27T19:39:17;95815.44;;;16.61;46.24
37892;BME280;45797;47.466;9.486;2023-04-27T19:44:18;95826.06;;;16.51;46.79
37892;BME280;45797;47.466;9.486;2023-04-27T19:49:18;95818.84;;;16.43;46.79
37892;BME280;45797;47.466;9.486;2023-04-27T19:54:18;95826.25;;;16.40;46.74
37892;BME280;45797;47.466;9.486;2023-04-27T19:59:18;95817.09;;;16.34;47.10
37892;BME280;45797;47.466;9.486;2023-04-27T20:04:20;95815.28;;;16.35;46.58
37892;BME280;45797;47.466;9.486;2023-04-27T20:09:29;95811.13;;;16.32;46.71
37892;BME280;45797;47.466;9.486;2023-04-27T20:14:31;95802.19;;;16.33;46.88
37892;BME280;45797;47.466;9.486;2023-04-27T20:19:35;95793.59;;;16.31;46.89
37892;BME280;45797;47.466;9.486;2023-04-27T20:24:52;95796.81;;;16.25;46.87
37892;BME280;45797;47.466;9.486;2023-04-27T20:29:54;95798.63;;;16.24;46.82
37892;BME280;45797;47.466;9.486;2023-04-27T20:34:55;95790.16;;;16.21;47.39
37892;BME280;45797;47.466;9.486;2023-04-27T20:39:55;95783.47;;;16.17;47.17
37892;BME280;45797;47.466;9.486;2023-04-27T20:44:56;95772.53;;;16.12;47.65
37892;BME280;45797;47.466;9.486;2023-04-27T20:50:03;95770.84;;;16.11;47.30
37892;BME280;45797;47.466;9.486;2023-04-27T20:55:04;95776.41;;;16.08;47.97
37892;BME280;45797;47.466;9.486;2023-04-27T21:00:06;95775.31;;;16.00;47.61
37892;BME280;45797;47.466;9.486;2023-04-27T21:05:09;95768.13;;;15.93;48.22
37892;BME280;45797;47.466;9.486;2023-04-27T21:10:11;95765.75;;;15.90;48.23
37892;BME280;45797;47.466;9.486;2023-04-27T21:15:11;95758.69;;;15.81;48.79
37892;BME280;45797;47.466;9.486;2023-04-27T21:20:18;95754.84;;;15.75;49.21
37892;BME280;45797;47.466;9.486;2023-04-27T21:25:18;95752.91;;;15.67;49.23
37892;BME280;45797;47.466;9.486;2023-04-27T21:30:18;95743.75;;;15.62;49.34
37892;BME280;45797;47.466;9.486;2023-04-27T21:35:20;95738.72;;;15.59;49.60
37892;BME280;45797;47.466;9.486;2023-04-27T21:40:21;95740.00;;;15.55;50.13
37892;BME280;45797;47.466;9.486;2023-04-27T21:45:24;95740.00;;;15.55;49.63
37892;BME280;45797;47.466;9.486;2023-04-27T21:50:24;95733.16;;;15.52;49.65
37892;BME280;45797;47.466;9.486;2023-04-27T21:55:27;95728.44;;;15.56;49.30
37892;BME280;45797;47.466;9.486;2023-04-27T22:00:34;95731.94;;;15.56;49.54
37892;BME280;45797;47.466;9.486;2023-04-27T22:05:34;95719.56;;;15.57;49.70
37892;BME280;45797;47.466;9.486;2023-04-27T22:10:39;95718.44;;;15.59;49.81
37892;BME280;45797;47.466;9.486;2023-04-27T22:15:42;95719.84;;;15.63;49.87
37892;BME280;45797;47.466;9.486;2023-04-27T22:20:42;95725.41;;;15.60;49.76
37892;BME280;45797;47.466;9.486;2023-04-27T22:25:50;95732.34;;;15.61;50.11
37892;BME280;45797;47.466;9.486;2023-04-27T22:30:50;95736.78;;;15.61;50.12
37892;BME280;45797;47.466;9.486;2023-04-27T22:35:51;95736.78;;;15.61;50.22
37892;BME280;45797;47.466;9.486;2023-04-27T22:40:52;95738.47;;;15.62;50.55
37892;BME280;45797;47.466;9.486;2023-04-27T22:45:53;95734.16;;;15.61;50.25
37892;BME280;45797;47.466;9.486;2023-04-27T22:50:54;95741.94;;;15.62;50.48
37892;BME280;45797;47.466;9.486;2023-04-27T22:56:03;95736.78;;;15.61;50.52
37892;BME280;45797;47.466;9.486;2023-04-27T23:01:06;95734.41;;;15.58;50.84
37892;BME280;45797;47.466;9.486;2023-04-27T23:06:11;95720.53;;;15.56;50.97
37892;BME280;45797;47.466;9.486;2023-04-27T23:11:13;95707.22;;;15.48;51.55
37892;BME280;45797;47.466;9.486;2023-04-27T23:16:15;95699.81;;;15.51;51.54
37892;BME280;45797;47.466;9.486;2023-04-27T23:21:17;95705.66;;;15.55;51.38
37892;BME280;45797;47.466;9.486;2023-04-27T23:26:20;95708.03;;;15.48;51.88
37892;BME280;45797;47.466;9.486;2023-04-27T23:31:22;95708.22;;;15.37;51.74
37892;BME280;45797;47.466;9.486;2023-04-27T23:36:22;95705.72;;;15.35;51.76
37892;BME280;45797;47.466;9.486;2023-04-27T23:41:22;95712.38;;;15.30;52.67
37892;BME280;45797;47.466;9.486;2023-04-27T23:46:22;95723.22;;;15.27;52.41
37892;BME280;45797;47.466;9.486;2023-04-27T23:51:23;95702.94;;;15.27;53.18
37892;BME280;45797;47.466;9.486;2023-04-27T23:56:30;95698.50;;;15.28;52.67
